Time;durP1;ratioP1;P1;durP2;ratioP2;P2;SDS_P1;SDS_P2;PMS_P1;PMS_P2;Temp;Humidity;BMP_temperature;BMP_pressure;BME280_temperature;BME280_humidity;BME280_pressure;Samples;Min_cycle;Max_cycle;Signal;HPM_P1;HPM_P2
2023/02/08 00:00:22;;;;;;;22.20;9.47;;;;;;;10.76;52.30;103747.19;5105114;28;20096;-48
2023/02/08 00:02:48;;;;;;;25.63;12.43;;;;;;;11.25;51.32;103741.44;5101247;28;20078;-50
2023/02/08 00:05:14;;;;;;;24.35;12.10;;;;;;;10.88;51.98;103741.84;5085842;28;20060;-51
2023/02/08 00:07:39;;;;;;;26.03;12.97;;;;;;;10.80;51.77;103749.63;5095443;28;20062;-53
2023/02/08 00:10:05;;;;;;;24.27;11.80;;;;;;;10.58;52.36;103743.34;5101668;28;20032;-53
2023/02/08 00:12:32;;;;;;;27.42;12.35;;;;;;;10.43;52.71;103737.41;5096799;28;20044;-50
2023/02/08 00:14:58;;;;;;;27.15;12.40;;;;;;;10.49;52.65;103744.94;5101407;28;20083;-50
2023/02/08 00:17:24;;;;;;;27.20;12.83;;;;;;;10.64;52.39;103742.88;5103059;28;20067;-51
2023/02/08 00:19:49;;;;;;;26.75;12.52;;;;;;;10.64;52.27;103742.88;5096891;28;20294;-48
2023/02/08 00:22:15;;;;;;;24.17;11.70;;;;;;;10.55;51.95;103739.09;5095620;28;20033;-48
2023/02/08 00:24:40;;;;;;;23.00;11.67;;;;;;;10.35;52.60;103737.97;5098204;28;20042;-53
2023/02/08 00:27:05;;;;;;;26.40;13.70;;;;;;;10.34;53.26;103725.56;5101250;28;20043;-49
2023/02/08 00:29:31;;;;;;;29.03;12.00;;;;;;;10.36;53.08;103726.31;5099701;28;20097;-53
2023/02/08 00:31:57;;;;;;;27.98;12.55;;;;;;;10.29;53.51;103735.81;5097961;28;20028;-52
2023/02/08 00:34:22;;;;;;;25.77;12.80;;;;;;;10.29;53.37;103727.78;5099814;28;20383;-51
2023/02/08 00:36:49;;;;;;;28.88;12.27;;;;;;;10.34;53.55;103730.94;5099346;28;20025;-49
2023/02/08 00:39:15;;;;;;;25.37;12.47;;;;;;;11.02;52.38;103729.97;5083341;28;20043;-49
2023/02/08 00:41:41;;;;;;;25.80;12.45;;;;;;;10.31;53.43;103733.84;5083956;28;20274;-49
2023/02/08 00:44:06;;;;;;;26.37;12.50;;;;;;;10.34;53.86;103733.59;5101058;28;20095;-51
2023/02/08 00:46:34;;;;;;;27.75;14.02;;;;;;;10.25;54.20;103727.16;5100275;28;20048;-51
2023/02/08 00:48:59;;;;;;;27.40;12.33;;;;;;;10.33;54.18;103723.88;5083182;28;20476;-50
2023/02/08 00:51:25;;;;;;;29.17;12.65;;;;;;;10.47;54.09;103718.31;5083032;28;20035;-49
2023/02/08 00:53:50;;;;;;;26.83;12.13;;;;;;;10.31;54.27;103709.78;5081330;28;20096;-48
2023/02/08 00:56:16;;;;;;;32.55;12.85;;;;;;;10.26;55.06;103718.16;5100022;28;20040;-50
2023/02/08 00:58:43;;;;;;;25.80;12.52;;;;;;;10.89;53.85;103716.75;5105981;28;20092;-48
2023/02/08 01:01:09;;;;;;;23.58;12.82;;;;;;;10.50;54.48;103719.91;5102589;28;20054;-49
2023/02/08 01:03:37;;;;;;;27.20;11.90;;;;;;;10.81;54.24;103721.88;5079625;28;20037;-48
2023/02/08 01:06:06;;;;;;;28.60;13.35;;;;;;;10.44;54.61;103720.38;5081867;28;20055;-52
2023/02/08 01:08:31;;;;;;;23.92;11.32;;;;;;;10.48;54.43;103716.47;5087680;28;20095;-48
2023/02/08 01:11:06;;;;;;;28.20;12.35;;;;;;;10.39;54.31;103712.72;5098368;28;20041;-49
2023/02/08 01:13:32;;;;;;;26.02;11.48;;;;;;;10.38;53.97;103705.66;5086064;28;20100;-52
2023/02/08 01:16:10;;;;;;;23.70;10.68;;;;;;;10.34;54.23;103709.53;5115065;28;20032;-50
2023/02/08 01:18:38;;;;;;;24.65;11.07;;;;;;;10.24;54.38;103704.06;5081160;28;20032;-50
2023/02/08 01:21:08;;;;;;;28.83;12.48;;;;;;;10.03;54.60;103706.63;5082370;28;20123;-47
2023/02/08 01:23:33;;;;;;;22.83;11.93;;;;;;;10.12;54.92;103710.41;5081139;28;20040;-47
2023/02/08 01:25:59;;;;;;;28.30;12.13;;;;;;;10.13;54.85;103704.09;5099369;28;20048;-51
2023/02/08 01:28:25;;;;;;;20.07;9.47;;;;;;;10.01;54.84;103698.72;5099258;28;20040;-52
2023/02/08 01:30:50;;;;;;;24.37;11.60;;;;;;;10.52;53.60;103707.25;5078391;28;20040;-50
2023/02/08 01:33:16;;;;;;;24.60;12.07;;;;;;;10.13;54.18;103717.44;5100842;28;20040;-53
2023/02/08 01:35:41;;;;;;;20.73;10.77;;;;;;;10.06;54.44;103716.25;5099742;28;20028;-47
2023/02/08 01:38:07;;;;;;;22.55;11.60;;;;;;;10.21;54.04;103714.19;5080914;28;20087;-52
2023/02/08 01:40:32;;;;;;;29.03;12.93;;;;;;;10.03;54.31;103723.53;5085028;28;20043;-49
2023/02/08 01:42:58;;;;;;;25.67;12.73;;;;;;;10.08;54.36;103720.47;5082723;28;20036;-48
2023/02/08 01:45:28;;;;;;;26.67;12.73;;;;;;;9.98;54.28;103716.84;5078487;28;20321;-51
2023/02/08 01:48:09;;;;;;;25.05;12.57;;;;;;;10.10;54.05;103718.53;5101487;28;20040;-49
2023/02/08 01:50:43;;;;;;;26.30;11.90;;;;;;;9.98;54.59;103711.50;5097964;28;20037;-48
2023/02/08 01:53:10;;;;;;;23.90;10.48;;;;;;;10.26;54.53;103717.31;5098679;28;20050;-47
2023/02/08 01:55:42;;;;;;;23.23;11.55;;;;;;;9.79;55.88;103706.72;5098938;28;20040;-47
2023/02/08 01:58:10;;;;;;;25.20;11.63;;;;;;;10.00;55.51;103702.38;5084625;28;20033;-47
2023/02/08 02:00:35;;;;;;;28.98;12.48;;;;;;;10.24;54.91;103703.22;5080667;28;20085;-46
2023/02/08 02:03:04;;;;;;;28.27;12.35;;;;;;;9.94;55.23;103702.03;5080292;28;20029;-50
2023/02/08 02:05:39;;;;;;;30.08;12.73;;;;;;;10.25;54.68;103700.41;5104222;28;20073;-50
2023/02/08 02:08:05;;;;;;;27.20;12.75;;;;;;;9.70;55.70;103701.13;5078459;28;20040;-48
2023/02/08 02:10:33;;;;;;;24.58;11.82;;;;;;;10.00;55.74;103697.00;5082455;28;20051;-51
2023/02/08 02:13:06;;;;;;;26.23;12.45;;;;;;;10.22;55.34;103694.47;5082347;28;20047;-53
2023/02/08 02:15:32;;;;;;;26.77;11.82;;;;;;;9.80;56.35;103689.72;5083016;28;20028;-53
2023/02/08 02:17:57;;;;;;;25.80;13.20;;;;;;;10.10;55.56;103693.63;5078198;28;20050;-51
2023/02/08 02:21:09;;;;;;;32.63;13.38;;;;;;;10.02;56.09;103683.53;5097969;28;20036;-49
2023/02/08 02:24:02;;;;;;;25.20;12.65;;;;;;;9.61;56.92;103686.66;5041164;28;20048;-50
2023/02/08 02:26:35;;;;;;;28.73;13.45;;;;;;;9.63;56.99;103686.56;5077037;28;20036;-50
2023/02/08 02:29:32;;;;;;;29.38;13.93;;;;;;;9.69;57.20;103685.25;5080501;28;20028;-47
2023/02/08 02:32:10;;;;;;;27.50;12.65;;;;;;;9.79;56.80;103680.00;5099480;28;20029;-46
2023/02/08 02:34:51;;;;;;;26.23;12.25;;;;;;;9.79;56.81;103683.53;5101228;28;20048;-47
2023/02/08 02:37:17;;;;;;;26.15;12.18;;;;;;;9.83;56.41;103678.81;5111122;28;20036;-52
2023/02/08 02:39:57;;;;;;;30.02;13.75;;;;;;;9.51;57.37;103684.81;5080666;28;20048;-50
2023/02/08 02:45:42;;;;;;;23.63;11.73;;;;;;;9.47;57.21;103679.72;5100444;28;20368;-51
2023/02/08 02:48:21;;;;;;;25.70;12.93;;;;;;;9.51;57.04;103680.34;5083472;28;20282;-52
2023/02/08 02:50:51;;;;;;;30.00;13.50;;;;;;;9.55;56.87;103675.59;5106407;28;20036;-54
2023/02/08 02:53:17;;;;;;;29.50;13.00;;;;;;;9.54;56.88;103669.41;5103316;28;20048;-54
2023/02/08 02:55:48;;;;;;;31.35;12.77;;;;;;;9.54;57.05;103669.41;5106777;28;20024;-48
2023/02/08 02:58:17;;;;;;;26.27;12.60;;;;;;;9.51;57.42;103666.13;5106768;28;20039;-52
2023/02/08 03:00:42;;;;;;;22.52;11.93;;;;;;;9.52;57.18;103679.38;5100372;28;20028;-52
2023/02/08 03:03:21;;;;;;;27.98;12.65;;;;;;;9.40;57.06;103677.63;5101332;28;20027;-49
2023/02/08 03:05:47;;;;;;;25.10;11.32;;;;;;;9.35;56.51;103683.34;5098976;28;20032;-54
2023/02/08 03:08:49;;;;;;;22.42;11.80;;;;;;;9.45;56.28;103676.31;5101028;28;20040;-49
2023/02/08 03:11:18;;;;;;;21.42;10.25;;;;;;;9.57;55.23;103685.19;4989388;28;20038;-50
2023/02/08 03:13:50;;;;;;;26.85;12.02;;;;;;;9.56;54.91;103687.97;5083766;28;20060;-51
2023/02/08 03:16:27;;;;;;;29.95;11.63;;;;;;;9.44;55.16;103679.09;5103616;28;20059;-48
2023/02/08 03:19:08;;;;;;;28.20;12.50;;;;;;;9.44;55.04;103676.41;5101836;28;20099;-54
2023/02/08 03:21:45;;;;;;;27.83;12.02;;;;;;;9.42;54.75;103678.34;5103442;28;20032;-49
2023/02/08 03:24:22;;;;;;;27.38;11.93;;;;;;;9.41;54.58;103668.66;5101041;28;20080;-55
2023/02/08 03:27:10;;;;;;;25.95;11.52;;;;;;;9.46;54.53;103679.84;5104147;28;20035;-52
2023/02/08 03:29:42;;;;;;;;;;;;;;;9.34;54.19;103684.28;5101881;28;20052;-52
2023/02/08 03:32:20;;;;;;;22.33;10.70;;;;;;;9.37;54.28;103675.19;5104326;28;19983;-53
2023/02/08 03:35:01;;;;;;;23.23;11.45;;;;;;;9.41;54.00;103677.53;5101483;28;20044;-49
2023/02/08 03:37:40;;;;;;;26.50;11.85;;;;;;;9.41;53.92;103674.84;5102236;28;20039;-52
2023/02/08 03:40:15;;;;;;;24.60;10.70;;;;;;;9.38;53.97;103668.88;5100930;28;20050;-48
2023/02/08 03:42:42;;;;;;;22.42;10.70;;;;;;;9.27;54.05;103664.38;5100121;28;20028;-52
2023/02/08 03:45:23;;;;;;;23.15;10.93;;;;;;;9.26;53.89;103670.69;5105006;28;20040;-51
2023/02/08 03:47:52;;;;;;;18.77;9.80;;;;;;;9.42;53.09;103670.34;5098177;28;20028;-51
2023/02/08 03:50:20;;;;;;;24.73;10.95;;;;;;;9.26;53.05;103676.00;5105435;28;20054;-51
2023/02/08 03:52:48;;;;;;;24.50;10.85;;;;;;;9.38;53.02;103669.75;5100552;28;20039;-47
2023/02/08 03:55:26;;;;;;;29.65;10.80;;;;;;;9.36;52.84;103666.34;5084643;28;20039;-50
2023/02/08 03:58:05;;;;;;;22.33;10.45;;;;;;;9.15;53.21;103672.34;5100149;28;20037;-52
2023/02/08 04:00:37;;;;;;;22.92;10.02;;;;;;;9.19;53.14;103670.28;5102040;28;20032;-52
2023/02/08 04:03:18;;;;;;;24.95;11.43;;;;;;;9.28;52.83;103666.94;5100600;28;20036;-50
2023/02/08 04:05:43;;;;;;;26.35;11.10;;;;;;;9.19;52.97;103672.94;5101438;28;20036;-51
2023/02/08 04:08:09;;;;;;;27.67;10.80;;;;;;;9.18;52.99;103676.59;5100936;28;20091;-49
2023/02/08 04:10:35;;;;;;;20.38;9.15;;;;;;;9.19;52.68;103670.28;5104677;28;20124;-51
2023/02/08 04:13:00;;;;;;;24.57;10.60;;;;;;;9.09;52.98;103679.97;5084386;28;20048;-46
2023/02/08 04:15:26;;;;;;;27.10;10.85;;;;;;;9.18;52.65;103681.94;5098817;28;20036;-48
2023/02/08 04:17:52;;;;;;;17.27;9.70;;;;;;;9.10;52.65;103681.66;5108245;28;20052;-50
2023/02/08 04:20:17;;;;;;;23.25;11.25;;;;;;;9.27;52.49;103678.59;5100903;28;20028;-50
2023/02/08 04:22:43;;;;;;;22.70;10.57;;;;;;;9.16;52.56;103681.19;5101763;28;20031;-49
2023/02/08 04:25:09;;;;;;;27.30;10.82;;;;;;;9.04;53.24;103686.50;5100446;28;20059;-48
2023/02/08 04:27:34;;;;;;;21.87;11.57;;;;;;;8.91;53.89;103692.88;5098290;28;20025;-48
2023/02/08 04:29:59;;;;;;;24.90;11.50;;;;;;;8.90;54.18;103681.34;5102158;28;20040;-50
2023/02/08 04:32:25;;;;;;;22.23;11.20;;;;;;;9.00;53.81;103682.38;5097844;28;20047;-51
2023/02/08 04:34:51;;;;;;;18.40;9.07;;;;;;;9.01;53.82;103684.06;5104214;28;20043;-48
2023/02/08 04:37:16;;;;;;;24.13;12.23;;;;;;;9.02;53.87;103680.44;5105990;28;20072;-51
2023/02/08 04:39:42;;;;;;;21.87;11.77;;;;;;;9.00;53.64;103676.16;5100860;28;20024;-49
2023/02/08 04:42:07;;;;;;;20.83;9.67;;;;;;;8.92;53.97;103676.75;5098597;28;20043;-49
2023/02/08 04:44:33;;;;;;;17.70;8.65;;;;;;;9.02;53.78;103663.56;5098895;28;20058;-52
2023/02/08 04:46:59;;;;;;;19.03;9.60;;;;;;;8.85;54.05;103662.16;5099067;28;20074;-47
2023/02/08 04:49:24;;;;;;;24.00;11.40;;;;;;;8.87;53.98;103665.56;5099236;28;20032;-47
2023/02/08 04:51:50;;;;;;;25.17;12.07;;;;;;;8.97;53.89;103661.22;5098855;28;20066;-51
2023/02/08 04:54:15;;;;;;;25.92;12.10;;;;;;;8.90;54.02;103670.66;5101331;28;20072;-52
2023/02/08 04:56:41;;;;;;;24.93;12.10;;;;;;;9.03;53.78;103659.91;5096037;28;20062;-48
2023/02/08 04:59:06;;;;;;;17.83;8.67;;;;;;;8.95;53.64;103662.31;5098867;28;20048;-51
2023/02/08 05:01:32;;;;;;;27.52;10.77;;;;;;;8.79;53.59;103662.63;5102029;28;20035;-48
2023/02/08 05:03:57;;;;;;;23.40;10.80;;;;;;;8.58;54.14;103649.91;5101009;28;20032;-52
2023/02/08 05:06:23;;;;;;;22.83;9.60;;;;;;;8.68;54.19;103655.41;5096154;28;20265;-51
2023/02/08 05:08:48;;;;;;;22.77;10.37;;;;;;;8.51;54.19;103659.28;5076384;28;20054;-49
2023/02/08 05:11:32;;;;;;;25.50;12.37;;;;;;;8.41;54.16;103649.28;5103401;28;20276;-48
2023/02/08 05:13:57;;;;;;;25.92;11.57;;;;;;;8.45;53.81;103650.75;5102425;28;20092;-50
2023/02/08 05:16:23;;;;;;;18.33;9.50;;;;;;;8.29;54.17;103656.34;5104884;28;20043;-48
2023/02/08 05:18:48;;;;;;;22.37;11.53;;;;;;;8.36;54.12;103656.78;5102320;28;20024;-53
2023/02/08 05:21:14;;;;;;;41.67;12.77;;;;;;;8.29;53.72;103658.16;5104126;28;20355;-51
2023/02/08 05:23:40;;;;;;;21.92;11.18;;;;;;;8.26;53.78;103647.72;5098840;28;20032;-49
2023/02/08 05:26:07;;;;;;;23.52;10.70;;;;;;;8.10;54.08;103656.84;5100357;28;20032;-50
2023/02/08 05:28:33;;;;;;;22.90;10.27;;;;;;;8.25;53.67;103652.22;5107641;28;20032;-50
2023/02/08 05:30:59;;;;;;;23.13;10.57;;;;;;;8.29;53.68;103647.50;5099101;28;20035;-48
2023/02/08 05:33:24;;;;;;;25.58;11.32;;;;;;;8.14;53.88;103645.00;5101655;28;20047;-51
2023/02/08 05:35:50;;;;;;;21.63;11.25;;;;;;;8.15;53.64;103645.81;5095385;28;20111;-51
2023/02/08 05:38:15;;;;;;;22.15;10.90;;;;;;;8.26;53.35;103648.59;5095858;28;20037;-51
2023/02/08 05:40:41;;;;;;;19.37;9.20;;;;;;;8.31;53.45;103645.59;5095941;28;20062;-49
2023/02/08 05:43:06;;;;;;;24.60;11.13;;;;;;;8.18;53.50;103642.94;5102559;28;20364;-52
2023/02/08 05:45:32;;;;;;;26.38;11.70;;;;;;;7.98;54.00;103647.91;5095540;28;20025;-53
2023/02/08 05:47:57;;;;;;;26.57;10.70;;;;;;;8.24;53.57;103646.97;5093835;28;20033;-49
2023/02/08 05:50:23;;;;;;;22.98;11.13;;;;;;;8.23;53.48;103646.16;5098053;28;20028;-50
2023/02/08 05:52:49;;;;;;;24.65;10.43;;;;;;;8.09;53.73;103649.81;5099164;28;20036;-48
2023/02/08 05:55:14;;;;;;;25.53;10.37;;;;;;;8.29;53.29;103660.81;5098819;28;20487;-46
2023/02/08 05:57:40;;;;;;;26.00;11.63;;;;;;;8.37;53.05;103669.13;5096517;28;20047;-47
2023/02/08 06:00:06;;;;;;;27.67;11.13;;;;;;;8.23;53.01;103664.81;5095898;28;20037;-49
2023/02/08 06:02:41;;;;;;;23.33;10.82;;;;;;;8.25;53.16;103657.53;5096158;28;20040;-49
2023/02/08 06:05:07;;;;;;;25.48;11.50;;;;;;;8.21;53.21;103660.53;5103107;28;20047;-49
2023/02/08 06:07:33;;;;;;;25.30;10.20;;;;;;;8.16;53.12;103661.72;5103755;28;20037;-47
2023/02/08 06:09:58;;;;;;;23.15;10.65;;;;;;;8.13;53.33;103664.59;5110634;28;20103;-51
2023/02/08 06:12:24;;;;;;;24.20;10.93;;;;;;;8.26;52.78;103661.03;5104820;28;20032;-48
2023/02/08 06:14:49;;;;;;;24.45;11.10;;;;;;;8.09;52.99;103659.59;5086115;28;20175;-52
2023/02/08 06:17:15;;;;;;;20.67;10.67;;;;;;;9.00;51.56;103658.34;5104235;28;20095;-48
2023/02/08 06:19:40;;;;;;;25.90;11.75;;;;;;;8.36;52.44;103651.44;5103370;28;20036;-48
2023/02/08 06:22:06;;;;;;;26.27;10.90;;;;;;;8.20;52.80;103648.16;5100005;28;20058;-47
2023/02/08 06:24:32;;;;;;;30.80;10.80;;;;;;;8.13;52.85;103653.94;5098035;28;20066;-49
2023/02/08 06:26:57;;;;;;;17.17;8.10;;;;;;;7.95;53.00;103653.41;5105639;28;20040;-49
2023/02/08 06:29:22;;;;;;;21.60;10.70;;;;;;;8.22;52.55;103656.91;5101104;28;20036;-49
2023/02/08 06:31:48;;;;;;;24.52;10.55;;;;;;;8.18;52.60;103654.47;5101312;28;20074;-51
2023/02/08 06:34:14;;;;;;;27.70;10.63;;;;;;;8.25;52.61;103654.88;5088565;28;20047;-48
2023/02/08 06:36:39;;;;;;;24.30;10.87;;;;;;;8.05;53.14;103648.28;5098765;28;20277;-51
2023/02/08 06:39:05;;;;;;;23.20;10.87;;;;;;;7.86;52.88;103654.09;5101466;28;20058;-52
2023/02/08 06:41:30;;;;;;;28.65;10.85;;;;;;;8.04;52.64;103647.44;5101475;28;20043;-47
2023/02/08 06:43:58;;;;;;;22.73;9.60;;;;;;;8.00;52.49;103653.09;5104656;28;20028;-49
2023/02/08 06:46:23;;;;;;;23.23;10.85;;;;;;;8.30;51.81;103655.38;5101533;28;20036;-48
2023/02/08 06:48:49;;;;;;;20.03;8.77;;;;;;;7.76;52.26;103656.53;5101163;28;20035;-49
2023/02/08 06:51:14;;;;;;;23.70;10.00;;;;;;;8.20;51.32;103657.03;5099656;28;20105;-48
2023/02/08 06:53:40;;;;;;;24.20;7.67;;;;;;;7.91;51.81;103654.59;5099500;28;20294;-47
2023/02/08 06:56:05;;;;;;;23.83;10.33;;;;;;;7.98;51.71;103652.38;5102366;28;20272;-47
2023/02/08 06:58:31;;;;;;;22.50;9.98;;;;;;;7.97;51.67;103656.84;5101521;28;20063;-50
2023/02/08 07:00:56;;;;;;;25.60;10.13;;;;;;;7.66;51.98;103655.50;5101407;28;20041;-47
2023/02/08 07:03:22;;;;;;;23.77;9.67;;;;;;;7.68;52.24;103656.22;5106282;28;20087;-47
2023/02/08 07:05:47;;;;;;;15.77;8.53;;;;;;;7.47;52.41;103649.59;5103478;28;20028;-54
2023/02/08 07:08:13;;;;;;;26.92;9.52;;;;;;;7.72;52.28;103657.72;5103607;28;20096;-48
2023/02/08 07:10:39;;;;;;;19.67;9.40;;;;;;;7.46;52.67;103653.22;5105015;28;20059;-52
2023/02/08 07:13:04;;;;;;;18.25;8.75;;;;;;;6.78;53.52;103646.28;5100968;28;20032;-51
2023/02/08 07:15:31;;;;;;;23.52;10.52;;;;;;;7.15;52.83;103646.47;5100244;28;20033;-50
2023/02/08 07:17:57;;;;;;;23.15;10.02;;;;;;;7.54;52.34;103651.88;5098843;28;20097;-51
2023/02/08 07:20:23;;;;;;;22.83;10.30;;;;;;;7.29;52.25;103651.72;5100634;28;20051;-50
2023/02/08 07:22:49;;;;;;;23.57;10.40;;;;;;;8.03;51.07;103645.75;5107865;28;20040;-49
2023/02/08 07:25:14;;;;;;;24.30;9.80;;;;;;;8.17;50.67;103646.56;5101291;28;20345;-50
2023/02/08 07:27:40;;;;;;;21.57;10.67;;;;;;;7.73;51.65;103646.97;5100540;28;20270;-50
2023/02/08 07:30:07;;;;;;;29.20;13.37;;;;;;;7.85;51.36;103647.06;5105620;28;20060;-51
2023/02/08 07:32:33;;;;;;;25.48;9.07;;;;;;;7.50;51.94;103640.56;5097500;28;20032;-50
2023/02/08 07:34:59;;;;;;;24.15;9.73;;;;;;;7.45;52.35;103634.72;5101141;28;20060;-52
2023/02/08 07:37:25;;;;;;;18.20;9.52;;;;;;;7.11;52.69;103631.66;5099552;28;20043;-47
2023/02/08 07:39:51;;;;;;;21.17;8.77;;;;;;;7.44;52.37;103636.50;5100376;28;20044;-50
2023/02/08 07:42:17;;;;;;;23.35;10.93;;;;;;;7.75;51.66;103641.50;5099672;28;20048;-51
2023/02/08 07:44:53;;;;;;;21.30;9.32;;;;;;;7.59;52.08;103642.56;5082831;28;20052;-51
2023/02/08 07:47:19;;;;;;;24.93;9.73;;;;;;;7.99;51.26;103648.72;5102137;28;20032;-50
2023/02/08 07:49:44;;;;;;;24.80;10.07;;;;;;;8.26;50.94;103651.25;5103463;28;20044;-49
2023/02/08 07:52:10;;;;;;;28.80;10.90;;;;;;;8.26;50.82;103656.59;5105161;28;20028;-51
2023/02/08 07:54:35;;;;;;;18.20;9.27;;;;;;;8.37;50.75;103657.59;5098192;28;20091;-50
2023/02/08 07:57:01;;;;;;;22.30;10.83;;;;;;;8.51;50.71;103660.16;5082471;28;20036;-48
2023/02/08 07:59:26;;;;;;;16.30;7.67;;;;;;;8.45;50.61;103661.41;5100630;28;20280;-48
2023/02/08 08:01:52;;;;;;;22.20;9.30;;;;;;;8.53;50.60;103660.03;5098392;28;20096;-50
2023/02/08 08:04:18;;;;;;;18.73;8.50;;;;;;;8.60;50.24;103655.97;5102603;28;20036;-54
2023/02/08 08:06:45;;;;;;;25.80;10.30;;;;;;;8.43;50.44;103654.50;5100118;28;20032;-47
2023/02/08 08:09:10;;;;;;;20.08;9.75;;;;;;;8.62;50.18;103646.03;5098016;28;20036;-53
2023/02/08 08:11:36;;;;;;;20.57;9.20;;;;;;;8.35;50.39;103648.88;5099768;28;20078;-49
2023/02/08 08:14:02;;;;;;;18.08;9.13;;;;;;;8.56;50.39;103641.16;5099626;28;20033;-50
2023/02/08 08:16:27;;;;;;;16.83;8.17;;;;;;;8.44;50.22;103646.38;5104137;28;20101;-48
2023/02/08 08:18:53;;;;;;;18.17;8.17;;;;;;;8.63;50.19;103639.75;5100472;28;20287;-51
2023/02/08 08:21:18;;;;;;;27.43;9.57;;;;;;;8.97;49.67;103649.72;5101905;28;20119;-52
2023/02/08 08:23:44;;;;;;;16.27;8.50;;;;;;;8.77;49.72;103651.22;5098457;28;20051;-48
2023/02/08 08:26:13;;;;;;;19.27;9.70;;;;;;;8.85;49.67;103657.66;5087396;28;20040;-48
2023/02/08 08:28:40;;;;;;;19.08;9.85;;;;;;;9.18;49.64;103661.44;5094059;28;20095;-53
2023/02/08 08:31:10;;;;;;;14.02;7.80;;;;;;;9.39;48.81;103654.56;5094709;28;20058;-48
2023/02/08 08:33:36;;;;;;;22.25;8.95;;;;;;;9.92;48.26;103655.81;5093654;28;20108;-51
2023/02/08 08:36:01;;;;;;;20.83;8.87;;;;;;;10.14;47.71;103654.97;5100750;28;20040;-50
2023/02/08 08:38:27;;;;;;;20.85;8.68;;;;;;;10.64;46.55;103649.19;5093411;28;20029;-49
2023/02/08 08:40:52;;;;;;;19.10;9.37;;;;;;;10.31;46.98;103656.28;5094165;28;20052;-48
2023/02/08 08:43:18;;;;;;;20.07;8.27;;;;;;;11.04;46.21;103648.50;5094614;28;20075;-48
2023/02/08 08:45:43;;;;;;;19.10;7.53;;;;;;;11.78;45.51;103656.59;5097176;28;20024;-49
2023/02/08 08:48:09;;;;;;;20.83;9.60;;;;;;;11.90;44.38;103655.50;5098246;28;20045;-47
2023/02/08 08:50:34;;;;;;;13.10;6.90;;;;;;;12.26;43.66;103654.25;5100730;28;20066;-48
2023/02/08 08:53:00;;;;;;;19.53;10.30;;;;;;;11.59;44.20;103650.16;5095724;28;20036;-49
2023/02/08 08:55:27;;;;;;;18.80;8.45;;;;;;;12.32;43.18;103648.31;5094690;28;20033;-50
2023/02/08 08:57:52;;;;;;;21.73;9.97;;;;;;;12.48;43.37;103650.47;5096004;28;20098;-48
2023/02/08 09:00:18;;;;;;;14.93;7.75;;;;;;;13.29;42.29;103649.31;5097357;28;20266;-48
2023/02/08 09:02:43;;;;;;;18.50;8.63;;;;;;;12.89;42.34;103653.88;5098422;28;20040;-54
2023/02/08 09:05:09;;;;;;;19.60;9.53;;;;;;;13.33;41.67;103650.69;5093447;28;20964;-51
2023/02/08 09:07:34;;;;;;;18.97;9.13;;;;;;;13.82;40.83;103647.03;5093817;28;20036;-51
2023/02/08 09:10:00;;;;;;;22.63;10.43;;;;;;;13.60;41.11;103641.03;5097194;28;20029;-48
2023/02/08 09:12:26;;;;;;;24.25;11.13;;;;;;;14.10;40.85;103638.13;5080140;28;20081;-49
2023/02/08 09:14:51;;;;;;;21.03;9.27;;;;;;;14.42;40.25;103632.25;5099522;28;20032;-48
2023/02/08 09:17:17;;;;;;;23.47;10.23;;;;;;;14.96;40.02;103631.41;5094090;28;20044;-50
2023/02/08 09:19:42;;;;;;;19.37;10.10;;;;;;;15.25;39.16;103638.38;5097256;28;20333;-51
2023/02/08 09:22:08;;;;;;;21.10;10.63;;;;;;;15.44;38.96;103634.63;5094216;28;20036;-48
2023/02/08 09:24:34;;;;;;;18.87;10.30;;;;;;;15.14;38.96;103627.84;5099442;28;20104;-52
2023/02/08 09:26:59;;;;;;;20.08;9.82;;;;;;;15.36;39.33;103628.31;5104822;28;20038;-50
2023/02/08 09:29:28;;;;;;;20.55;9.65;;;;;;;15.75;38.51;103633.25;5099093;28;20068;-50
2023/02/08 09:31:55;;;;;;;16.63;9.27;;;;;;;16.06;38.15;103640.81;5096406;28;20074;-52
2023/02/08 09:34:20;;;;;;;18.58;10.52;;;;;;;16.87;36.55;103643.81;5098572;28;20064;-52
2023/02/08 09:36:46;;;;;;;18.60;10.30;;;;;;;16.98;36.55;103639.97;5101286;28;20047;-52
2023/02/08 09:39:17;;;;;;;19.90;9.43;;;;;;;17.61;35.92;103642.88;5096105;28;20036;-50
2023/02/08 09:42:03;;;;;;;20.03;9.87;;;;;;;17.98;34.99;103650.50;5096464;28;20056;-54
2023/02/08 09:44:44;;;;;;;18.33;9.50;;;;;;;18.54;34.93;103660.38;5098311;28;20257;-54
2023/02/08 09:47:18;;;;;;;20.60;10.57;;;;;;;18.92;33.88;103668.56;5094285;28;20272;-52
2023/02/08 09:50:04;;;;;;;19.53;9.87;;;;;;;19.10;34.22;103665.53;5099563;28;20277;-52
2023/02/08 09:52:41;;;;;;;17.73;10.33;;;;;;;19.42;33.49;103668.94;5095015;28;20280;-54
2023/02/08 09:55:30;;;;;;;20.33;10.33;;;;;;;19.45;33.36;103665.84;5096921;28;20349;-50
2023/02/08 09:57:57;;;;;;;19.57;10.43;;;;;;;20.16;32.94;103675.38;5098555;28;20342;-54
2023/02/08 10:00:40;;;;;;;16.37;9.97;;;;;;;20.60;32.45;103680.84;5099036;28;20324;-51
2023/02/08 10:03:20;;;;;;;18.37;9.73;;;;;;;20.74;31.70;103677.22;5095818;28;20268;-52
2023/02/08 10:05:47;;;;;;;18.87;10.63;;;;;;;21.27;31.20;103686.88;5097195;28;20261;-50
2023/02/08 10:08:12;;;;;;;18.13;10.48;;;;;;;21.49;30.89;103675.94;5102933;28;20265;-52
2023/02/08 10:10:55;;;;;;;19.42;10.70;;;;;;;21.24;30.71;103681.84;5096423;28;20035;-51
2023/02/08 10:13:37;;;;;;;21.33;10.10;;;;;;;21.74;29.99;103679.00;5098287;28;20038;-50
2023/02/08 10:16:12;;;;;;;18.40;10.03;;;;;;;22.45;29.93;103674.22;5098138;28;20320;-57
2023/02/08 10:18:55;;;;;;;20.30;10.37;;;;;;;22.76;29.24;103667.34;5099749;28;20273;-52
2023/02/08 10:21:39;;;;;;;18.53;10.17;;;;;;;23.17;28.70;103670.91;5099574;28;20039;-55
2023/02/08 10:24:29;;;;;;;17.43;10.27;;;;;;;22.35;28.76;103669.19;5093243;28;20051;-48
2023/02/08 10:27:15;;;;;;;21.30;9.87;;;;;;;23.37;28.20;103674.69;5097078;28;20035;-49
2023/02/08 10:30:28;;;;;;;21.07;10.40;;;;;;;23.68;28.08;103678.59;5096639;28;20032;-51
2023/02/08 10:33:14;;;;;;;18.80;9.83;;;;;;;23.89;27.64;103678.28;5017468;28;20157;-50
2023/02/08 10:35:46;;;;;;;17.60;9.95;;;;;;;24.14;27.26;103683.03;5090259;28;20040;-52
2023/02/08 10:38:24;;;;;;;19.30;10.07;;;;;;;23.84;27.06;103685.44;5097052;28;20040;-50
2023/02/08 10:40:54;;;;;;;17.30;9.93;;;;;;;24.47;26.60;103687.47;5095503;28;20032;-48
2023/02/08 10:43:35;;;;;;;17.80;9.83;;;;;;;24.61;26.90;103681.88;5096818;28;20036;-52
2023/02/08 10:46:19;;;;;;;18.37;10.10;;;;;;;25.28;26.38;103683.25;5093512;28;20040;-50
2023/02/08 10:48:52;;;;;;;18.47;9.50;;;;;;;25.25;26.39;103689.16;5091823;28;20099;-53
2023/02/08 10:51:19;;;;;;;18.33;9.80;;;;;;;25.85;26.13;103683.03;5094685;28;20033;-52
2023/02/08 10:53:45;;;;;;;20.03;9.80;;;;;;;26.22;25.33;103682.13;5095107;28;20089;-48
2023/02/08 10:56:34;;;;;;;;;;;;;;;25.88;25.58;103679.81;5102358;28;20038;-49
2023/02/08 10:59:08;;;;;;;17.70;9.50;;;;;;;26.08;24.99;103680.63;5087355;28;19943;-51
2023/02/08 11:01:34;;;;;;;17.60;9.53;;;;;;;26.93;24.97;103673.22;5101219;28;20033;-52
2023/02/08 11:04:02;;;;;;;19.45;9.77;;;;;;;27.16;24.83;103682.50;5100005;28;20043;-48
2023/02/08 11:06:28;;;;;;;18.40;9.93;;;;;;;27.13;24.22;103672.00;5099888;28;20032;-48
2023/02/08 11:08:55;;;;;;;15.48;9.85;;;;;;;26.75;24.26;103669.47;5103846;28;20051;-51
2023/02/08 11:11:21;;;;;;;14.93;8.70;;;;;;;26.89;23.75;103658.28;5100822;28;20052;-49
2023/02/08 11:13:50;;;;;;;;;;;;;;;27.23;23.31;103661.28;5101591;28;20024;-53
2023/02/08 11:16:26;;;;;;;13.97;9.00;;;;;;;27.16;23.42;103660.53;5098623;28;19950;-50
2023/02/08 11:19:00;;;;;;;13.15;8.40;;;;;;;26.79;23.68;103660.78;5101004;28;20033;-53
2023/02/08 11:21:33;;;;;;;14.17;9.10;;;;;;;27.55;23.29;103669.09;5098629;28;20064;-50
2023/02/08 11:24:02;;;;;;;16.37;8.40;;;;;;;27.57;23.16;103664.19;5102470;28;20036;-48
2023/02/08 11:26:30;;;;;;;17.93;8.83;;;;;;;27.93;22.67;103657.75;5098480;28;20095;-51
2023/02/08 11:29:04;;;;;;;16.40;8.93;;;;;;;28.37;22.23;103663.50;5103034;28;20069;-54